MSC Maria Saveria — 3FLE8 — position and weather

sailwx.info

Track history (hours):
 
Tides and Currents Weather Stations Pressure Air Temp Water Temp Dewpoint Dewpoint Depression Visibility Wind Speed Wind Dir Waves Ship Positions

MSC Maria Saveria

Last reported at 2017-Sep-21 19:25 UTC. Time now 2017-Sep-21 19:52 UTC.
Position N 51°49' E 003°25'.

Length 366 m; draft 12.8 m.

Type: Ship (hazmat cat A). MMSI: 372400000.

Date/timePositionNaut miles runAvg speedWind from/ knotsBaromVisibWave heightAir tempDewpointWater temp
2017-Sep-21 19:25N 51°49' E 003°25'0 0.1
2017-Sep-21 18:58N 51°49' E 003°25'0 0.0
2017-Sep-21 18:28N 51°49' E 003°25'0 0.0
2017-Sep-21 17:58N 51°49' E 003°25'0 0.0
2017-Sep-21 17:28N 51°49' E 003°25'0 0.0
2017-Sep-21 16:52N 51°49' E 003°25'0 0.0
2017-Sep-21 16:16N 51°49' E 003°25'0 0.1
2017-Sep-21 15:58N 51°49' E 003°25'0 0.0
2017-Sep-21 15:22N 51°49' E 003°25'0 0.0
2017-Sep-21 14:10N 51°49' E 003°25'0 0.0
2017-Sep-21 13:58N 51°49' E 003°25'0 0.0
2017-Sep-21 13:28N 51°49' E 003°25'0 0.0
2017-Sep-21 12:55N 51°49' E 003°25'0 0.1
2017-Sep-21 12:25N 51°49' E 003°25'0 0.1
2017-Sep-21 11:46N 51°49' E 003°25'0 0.2
2017-Sep-21 11:28N 51°49' E 003°25'1 1.3
2017-Sep-21 10:46N 51°49' E 003°23'2 7.6
2017-Sep-21 10:26N 51°50' E 003°19'612.9
2017-Sep-21 09:58N 51°45' E 003°14'611.2
2017-Sep-21 09:28N 51°39' E 003°12'715.3
2017-Sep-21 09:01N 51°33' E 003°08'816.2
2017-Sep-21 08:30N 51°27' E 002°59'815.0
2017-Sep-21 08:00N 51°24' E 003°11'918.7
2017-Sep-21 07:30N 51°25' E 003°26'612.6
2017-Sep-21 07:00N 51°26' E 003°36'5 9.9
2017-Sep-21 06:31N 51°24' E 003°43'713.4
2017-Sep-21 06:00N 51°21' E 003°52'714.3
2017-Sep-21 05:30N 51°26' E 004°00'612.6
2017-Sep-21 05:00N 51°22' E 004°08'4 8.9
2017-Sep-21 04:30N 51°21' E 004°15'3 6.6
2017-Sep-21 04:01N 51°18' E 004°16'0 0.2
2017-Sep-21 03:31N 51°18' E 004°16'0 0.0
2017-Sep-21 03:00N 51°18' E 004°16'0 0.0
2017-Sep-21 02:29N 51°18' E 004°16'0 0.0
2017-Sep-21 01:59N 51°18' E 004°16'0 0.0
2017-Sep-21 01:29N 51°18' E 004°16'0 0.0
2017-Sep-21 00:59N 51°18' E 004°16'0 0.0
2017-Sep-21 00:29N 51°18' E 004°16'0 0.0
2017-Sep-20 23:59N 51°18' E 004°16'0 0.0
2017-Sep-20 23:29N 51°18' E 004°16'0 0.0
2017-Sep-20 22:59N 51°18' E 004°16'0 0.0
2017-Sep-20 22:29N 51°18' E 004°16'0 0.0
2017-Sep-20 21:59N 51°18' E 004°16'0 0.0
2017-Sep-20 21:29N 51°18' E 004°16'0 0.0
2017-Sep-20 20:59N 51°18' E 004°16'0 0.0
2017-Sep-20 20:29N 51°18' E 004°16'0 0.0
2017-Sep-20 19:59N 51°18' E 004°16'0 0.0
2017-Sep-20 19:29N 51°18' E 004°16'0 0.0
2017-Sep-20 18:59N 51°18' E 004°16'0 0.0
2017-Sep-20 18:29N 51°18' E 004°16'0 0.0
2017-Sep-20 17:59N 51°18' E 004°16'0 0.0
2017-Sep-20 17:29N 51°18' E 004°16'0 0.0
2017-Sep-20 16:59N 51°18' E 004°16'0 0.0
2017-Sep-20 16:29N 51°18' E 004°16'0 0.0
2017-Sep-20 15:59N 51°18' E 004°16'0 0.0
2017-Sep-20 15:29N 51°18' E 004°16'0 0.0
2017-Sep-20 14:59N 51°18' E 004°16'0 0.0
2017-Sep-20 13:59N 51°18' E 004°16'0 0.0
2017-Sep-20 13:29N 51°18' E 004°16'0 0.0
2017-Sep-20 12:59N 51°18' E 004°16'0 0.0
2017-Sep-20 12:29N 51°18' E 004°16'0 0.0
2017-Sep-20 11:59N 51°18' E 004°16'0 0.0
2017-Sep-20 11:29N 51°18' E 004°16'0 0.0
2017-Sep-20 10:59N 51°18' E 004°16'0 0.0
2017-Sep-20 10:29N 51°18' E 004°16'0 0.0
2017-Sep-20 09:59N 51°18' E 004°16'0 0.0
2017-Sep-20 09:29N 51°18' E 004°16'0 0.0
2017-Sep-20 08:59N 51°18' E 004°16'0 0.0
2017-Sep-20 08:29N 51°18' E 004°16'0 0.0
2017-Sep-20 07:59N 51°18' E 004°16'0 0.0
2017-Sep-20 07:29N 51°18' E 004°16'0 0.0
2017-Sep-20 06:59N 51°18' E 004°16'0 0.0
2017-Sep-20 06:29N 51°18' E 004°16'0 0.0
2017-Sep-20 05:59N 51°18' E 004°16'0 0.0
2017-Sep-20 05:29N 51°18' E 004°16'0 0.0
2017-Sep-20 04:59N 51°18' E 004°16'0 0.0
2017-Sep-20 04:29N 51°18' E 004°16'0 0.0
2017-Sep-20 03:59N 51°18' E 004°16'0 0.0
2017-Sep-20 03:29N 51°18' E 004°16'0 0.0
2017-Sep-20 02:59N 51°18' E 004°16'0 0.0
2017-Sep-20 02:29N 51°18' E 004°16'0 0.0
2017-Sep-20 01:59N 51°18' E 004°16'0 0.0
2017-Sep-20 01:29N 51°18' E 004°16'0 0.0
2017-Sep-20 00:59N 51°18' E 004°16'0 0.0
2017-Sep-20 00:29N 51°18' E 004°16'0 0.0
2017-Sep-19 23:59N 51°18' E 004°16'0 0.0
2017-Sep-19 23:29N 51°18' E 004°16'0 0.0
2017-Sep-19 22:59N 51°18' E 004°16'0 0.0
2017-Sep-19 22:29N 51°18' E 004°16'0 0.0
2017-Sep-19 21:59N 51°18' E 004°16'0 0.0
2017-Sep-19 21:29N 51°18' E 004°16'0 0.0
2017-Sep-19 20:59N 51°18' E 004°16'0 0.0
2017-Sep-19 20:29N 51°18' E 004°16'0 0.0
2017-Sep-19 19:56N 51°18' E 004°16'0 0.0
2017-Sep-19 19:29N 51°18' E 004°16'0 0.0
2017-Sep-19 18:59N 51°18' E 004°16'0 0.0
2017-Sep-19 18:28N 51°18' E 004°16'0 0.0
2017-Sep-19 17:59N 51°18' E 004°16'0 0.0
2017-Sep-19 17:28N 51°18' E 004°16'0 0.0
2017-Sep-19 16:56N 51°18' E 004°16'0 0.0
2017-Sep-19 16:29N 51°18' E 004°16'0 0.0
2017-Sep-19 15:58N 51°18' E 004°16'0 0.0
2017-Sep-19 15:29N 51°18' E 004°16'0 0.0
2017-Sep-19 15:00N 51°18' E 004°16'0 0.0
2017-Sep-19 14:30N 51°18' E 004°16'0 0.0
2017-Sep-19 14:00N 51°18' E 004°16'0 0.0
2017-Sep-19 13:31N 51°18' E 004°16'0 0.0
2017-Sep-19 13:00N 51°18' E 004°16'0 0.0
2017-Sep-19 12:30N 51°18' E 004°16'0 0.0
2017-Sep-19 12:00N 51°18' E 004°16'0 0.0
2017-Sep-19 11:31N 51°18' E 004°16'0 0.0
2017-Sep-19 11:00N 51°18' E 004°16'1 2.0
2017-Sep-19 10:31N 51°19' E 004°16'4 8.9
2017-Sep-19 10:00N 51°23' E 004°13'611.2
2017-Sep-19 09:30N 51°22' E 004°04'5 9.6
2017-Sep-19 09:01N 51°26' E 003°58'713.4
2017-Sep-19 08:31N 51°21' E 003°51'713.9
2017-Sep-19 08:01N 51°25' E 003°42'510.2
2017-Sep-19 07:30N 51°25' E 003°34'815.6
2017-Sep-19 07:00N 51°24' E 003°22'816.0
2017-Sep-19 06:30N 51°24' E 003°09'713.1
2017-Sep-19 06:00N 51°27' E 002°59'918.9
2017-Sep-19 05:30N 51°34' E 003°09'917.8
2017-Sep-19 05:00N 51°43' E 003°12'5 9.4
2017-Sep-19 04:30N 51°47' E 003°16'4 7.4
2017-Sep-19 04:00N 51°51' E 003°15'510.5
2017-Sep-19 03:29N 51°56' E 003°18'510.8
2017-Sep-19 03:00N 52°01' E 003°20'612.7
2017-Sep-19 02:30N 52°07' E 003°21'815.6
2017-Sep-19 02:00N 52°15' E 003°23'917.6
2017-Sep-19 01:29N 52°24' E 003°26'917.8
2017-Sep-19 01:00N 52°32' E 003°29'4518.7
2017-Sep-18 22:35N 53°07' E 004°17'320.2
2017-Sep-18 22:25N 53°09' E 004°21'920.0
2017-Sep-18 21:57N 53°17' E 004°29'919.9
2017-Sep-18 21:30N 53°26' E 004°34'1019.3
2017-Sep-18 21:01N 53°32' E 004°47'1020.5
2017-Sep-18 20:31N 53°35' E 005°03'1020.2
2017-Sep-18 20:01N 53°38' E 005°19'1019.5
2017-Sep-18 19:29N 53°41' E 005°36'7519.0
2017-Sep-18 15:34N 54°01' E 007°37'120.1
2017-Sep-18 15:30N 54°01' E 007°39'1020.0
2017-Sep-18 15:01N 54°02' E 007°56'1019.3
2017-Sep-18 14:30N 54°00' E 008°13'917.0
2017-Sep-18 14:00N 53°59' E 008°27'817.0
2017-Sep-18 13:30N 53°56' E 008°40'713.8
2017-Sep-18 13:01N 53°50' E 008°48'815.3
2017-Sep-18 12:31N 53°51' E 009°01'611.9
2017-Sep-18 12:00N 53°53' E 009°10'612.1
2017-Sep-18 11:31N 53°51' E 009°20'612.5
2017-Sep-18 11:00N 53°45' E 009°25'510.9
2017-Sep-18 10:31N 53°41' E 009°30'4 8.3
2017-Sep-18 10:01N 53°37' E 009°33'5 9.2
2017-Sep-18 09:30N 53°34' E 009°40'4 7.1
2017-Sep-18 09:00N 53°34' E 009°45'4 7.1
2017-Sep-18 08:30N 53°33' E 009°51'1 2.6
2017-Sep-18 08:00N 53°33' E 009°53'1 2.6
2017-Sep-18 07:30N 53°32' E 009°55'0 0.0
2017-Sep-18 07:00N 53°32' E 009°55'0 0.0
2017-Sep-18 06:30N 53°32' E 009°55'0 0.0
2017-Sep-18 05:59N 53°32' E 009°55'0 0.0
2017-Sep-18 05:29N 53°32' E 009°55'0 0.0
2017-Sep-18 04:56N 53°32' E 009°55'0 0.0
2017-Sep-18 04:29N 53°32' E 009°55'0 0.0
2017-Sep-18 03:59N 53°32' E 009°55'0 0.0
2017-Sep-18 03:29N 53°32' E 009°55'0 0.0
2017-Sep-18 02:59N 53°32' E 009°55'0 0.0
2017-Sep-18 02:29N 53°32' E 009°55'0 0.0
2017-Sep-18 01:59N 53°32' E 009°55'0 0.0
2017-Sep-18 01:29N 53°32' E 009°55'0 0.0
2017-Sep-18 00:59N 53°32' E 009°55'0 0.0
2017-Sep-18 00:29N 53°32' E 009°55'0 0.0
2017-Sep-17 23:59N 53°32' E 009°55'0 0.0
2017-Sep-17 23:29N 53°32' E 009°55'0 0.0
2017-Sep-17 22:59N 53°32' E 009°55'0 0.0
2017-Sep-17 22:29N 53°32' E 009°55'0 0.0
2017-Sep-17 21:59N 53°32' E 009°55'0 0.0
2017-Sep-17 21:29N 53°32' E 009°55'0 0.0
2017-Sep-17 20:59N 53°32' E 009°55'0 0.0
2017-Sep-17 20:29N 53°32' E 009°55'0 0.0
2017-Sep-17 19:59N 53°32' E 009°55'0 0.0
2017-Sep-17 19:29N 53°32' E 009°55'0 0.0
2017-Sep-17 18:59N 53°32' E 009°55'0 0.0
2017-Sep-17 18:29N 53°32' E 009°55'0 0.0
2017-Sep-17 17:59N 53°32' E 009°55'0 0.0
2017-Sep-17 17:29N 53°32' E 009°55'0 0.0
2017-Sep-17 16:59N 53°32' E 009°55'0 0.0
2017-Sep-17 16:29N 53°32' E 009°55'0 0.0
2017-Sep-17 15:59N 53°32' E 009°55'0 0.0
2017-Sep-17 15:29N 53°32' E 009°55'0 0.0
2017-Sep-17 14:59N 53°32' E 009°55'0 0.0
2017-Sep-17 14:29N 53°32' E 009°55'0 0.0
2017-Sep-17 13:59N 53°32' E 009°55'0 0.0
2017-Sep-17 13:29N 53°32' E 009°55'0 0.0
2017-Sep-17 12:59N 53°32' E 009°55'0 0.0
2017-Sep-17 12:29N 53°32' E 009°55'0 0.0
2017-Sep-17 11:59N 53°32' E 009°55'0 0.0
2017-Sep-17 11:29N 53°32' E 009°55'0 0.0
2017-Sep-17 10:59N 53°32' E 009°55'0 0.0
2017-Sep-17 10:29N 53°32' E 009°55'0 0.0
2017-Sep-17 09:59N 53°32' E 009°55'0 0.0
2017-Sep-17 09:29N 53°32' E 009°55'0 0.0
2017-Sep-17 08:59N 53°32' E 009°55'0 0.0
2017-Sep-17 08:29N 53°32' E 009°55'0 0.0
2017-Sep-17 07:59N 53°32' E 009°55'0 0.0
2017-Sep-17 07:26N 53°32' E 009°55'0 0.0
2017-Sep-17 06:59N 53°32' E 009°55'0 0.0
2017-Sep-17 06:29N 53°32' E 009°55'0 0.0
2017-Sep-17 05:59N 53°32' E 009°55'0 0.0
2017-Sep-17 05:29N 53°32' E 009°55'0 0.0
2017-Sep-17 04:59N 53°32' E 009°55'0 0.0
2017-Sep-17 04:29N 53°32' E 009°55'0 0.0
2017-Sep-17 03:59N 53°32' E 009°55'0 0.0
2017-Sep-17 03:29N 53°32' E 009°55'0 0.0
2017-Sep-17 02:59N 53°32' E 009°55'0 0.0
2017-Sep-17 02:29N 53°32' E 009°55'0 0.0
2017-Sep-17 01:59N 53°32' E 009°55'0 0.0
2017-Sep-17 01:29N 53°32' E 009°55'0 0.0
2017-Sep-17 00:59N 53°32' E 009°55'0 0.0
2017-Sep-17 00:29N 53°32' E 009°55'0 0.0
2017-Sep-16 23:59N 53°32' E 009°55'0 0.0
2017-Sep-16 23:29N 53°32' E 009°55'0 0.0
2017-Sep-16 22:59N 53°32' E 009°55'0 0.0
2017-Sep-16 22:29N 53°32' E 009°55'0 0.0
2017-Sep-16 21:59N 53°32' E 009°55'0 0.0
2017-Sep-16 21:29N 53°32' E 009°55'0 0.0
2017-Sep-16 20:59N 53°32' E 009°55'0 0.0
2017-Sep-16 20:29N 53°32' E 009°55'0 0.0
2017-Sep-16 19:59N 53°32' E 009°55'0 0.0
2017-Sep-16 19:29N 53°32' E 009°55'0 0.0
2017-Sep-16 18:59N 53°32' E 009°55'0 0.0
2017-Sep-16 18:29N 53°32' E 009°55'0 0.0
2017-Sep-16 17:59N 53°32' E 009°55'0 0.0
2017-Sep-16 17:29N 53°32' E 009°55'0 0.0
2017-Sep-16 16:59N 53°32' E 009°55'0 0.0
2017-Sep-16 16:29N 53°32' E 009°55'0 0.0
2017-Sep-16 15:59N 53°32' E 009°55'0 0.0
2017-Sep-16 15:31N 53°32' E 009°55'0 0.0
2017-Sep-16 15:01N 53°32' E 009°55'0 0.0
2017-Sep-16 14:30N 53°32' E 009°55'0 0.0
2017-Sep-16 14:00N 53°32' E 009°55'0 0.0
2017-Sep-16 13:30N 53°32' E 009°55'0 0.0
2017-Sep-16 13:01N 53°32' E 009°55'0 0.0
2017-Sep-16 12:30N 53°32' E 009°55'1 1.0
2017-Sep-16 12:01N 53°32' E 009°54'2 3.3
2017-Sep-16 11:30N 53°33' E 009°52'4 8.0
2017-Sep-16 11:00N 53°34' E 009°45'510.0
2017-Sep-16 10:30N 53°35' E 009°37'612.0
2017-Sep-16 10:00N 53°40' E 009°31'713.6
2017-Sep-16 09:31N 53°45' E 009°24'815.3
2017-Sep-16 09:00N 53°52' E 009°18'612.0
2017-Sep-16 08:31N 53°53' E 009°08'713.4
2017-Sep-16 08:00N 53°51' E 008°57'815.7
2017-Sep-16 07:30N 53°52' E 008°44'713.2
2017-Sep-16 07:00N 53°57' E 008°37'917.5
2017-Sep-16 06:29N 53°59' E 008°22'816.9
2017-Sep-16 06:00N 53°59' E 008°08'4 5.7
2017-Sep-16 05:14N 53°59' E 008°00'9315.8
2017-Sep-15 23:22N 53°35' E 005°28'718.1
2017-Sep-15 22:59N 53°32' E 005°17'817.7
2017-Sep-15 22:30N 53°30' E 005°04'917.6
2017-Sep-15 22:00N 53°27' E 004°50'917.2
2017-Sep-15 21:30N 53°21' E 004°40'917.9
2017-Sep-15 21:00N 53°13' E 004°32'918.0
2017-Sep-15 20:30N 53°05' E 004°25'917.9
2017-Sep-15 20:00N 52°57' E 004°19'917.5
2017-Sep-15 19:31N 52°49' E 004°13'917.8
2017-Sep-15 19:00N 52°42' E 004°04'917.7
2017-Sep-15 18:30N 52°36' E 003°54'918.3
2017-Sep-15 18:00N 52°29' E 003°43'1018.2
2017-Sep-15 17:29N 52°23' E 003°31'5916.5
2017-Sep-15 13:54N 51°52' E 002°08'717.7
2017-Sep-15 13:30N 51°50' E 001°58'817.0
2017-Sep-15 13:00N 51°49' E 001°44'714.1
2017-Sep-15 12:30N 51°52' E 001°34'510.2
2017-Sep-15 12:00N 51°56' E 001°29'612.6
2017-Sep-15 11:30N 51°56' E 001°19'2 4.7
2017-Sep-15 11:00N 51°58' E 001°17'0 0.0
2017-Sep-15 10:30N 51°58' E 001°17'0 0.0
2017-Sep-15 10:00N 51°58' E 001°17'0 0.0
2017-Sep-15 09:30N 51°58' E 001°17'0 0.0
2017-Sep-15 09:00N 51°58' E 001°17'0 0.0
2017-Sep-15 08:30N 51°58' E 001°17'0 0.0
2017-Sep-15 08:00N 51°58' E 001°17'0 0.0
2017-Sep-15 07:30N 51°58' E 001°17'0 0.0
2017-Sep-15 07:00N 51°58' E 001°17'0 0.0
2017-Sep-15 06:30N 51°58' E 001°17'0 0.0
2017-Sep-15 06:00N 51°58' E 001°17'0 0.0
2017-Sep-15 05:30N 51°58' E 001°17'0 0.0
2017-Sep-15 05:00N 51°58' E 001°17'0 0.0
2017-Sep-15 04:30N 51°58' E 001°17'0 0.0
2017-Sep-15 04:00N 51°58' E 001°17'0 0.0
2017-Sep-15 03:30N 51°58' E 001°17'0 0.0
2017-Sep-15 03:00N 51°58' E 001°17'0 0.0
2017-Sep-15 02:30N 51°58' E 001°17'0 0.0
2017-Sep-15 02:00N 51°58' E 001°17'0 0.0
2017-Sep-15 01:30N 51°58' E 001°17'0 0.0
2017-Sep-15 01:00N 51°58' E 001°17'0 0.0
2017-Sep-15 00:30N 51°58' E 001°17'0 0.0
2017-Sep-15 00:00N 51°58' E 001°17'0 0.0
2017-Sep-14 23:30N 51°58' E 001°17'0 0.0
2017-Sep-14 23:00N 51°58' E 001°17'0 0.0
2017-Sep-14 22:30N 51°58' E 001°17'0 0.0
2017-Sep-14 22:00N 51°58' E 001°17'0 0.0
2017-Sep-14 21:30N 51°58' E 001°17'0 0.0
2017-Sep-14 21:00N 51°58' E 001°17'0 0.0
2017-Sep-14 20:30N 51°58' E 001°17'0 0.0
2017-Sep-14 20:00N 51°58' E 001°17'0 0.0
2017-Sep-14 19:30N 51°58' E 001°17'0 0.0
2017-Sep-14 19:00N 51°58' E 001°17'0 0.0
2017-Sep-14 18:30N 51°58' E 001°17'0 0.0
2017-Sep-14 18:00N 51°58' E 001°17'0 0.0
2017-Sep-14 17:30N 51°58' E 001°17'0 0.0
2017-Sep-14 17:00N 51°58' E 001°17'0 0.0
2017-Sep-14 16:30N 51°58' E 001°17'0 0.0
2017-Sep-14 16:00N 51°58' E 001°17'0 0.0
2017-Sep-14 15:30N 51°58' E 001°17'0 0.0
2017-Sep-14 15:00N 51°58' E 001°17'0 0.0
2017-Sep-14 14:30N 51°58' E 001°17'0 0.0
2017-Sep-14 14:01N 51°58' E 001°17'0 0.6
2017-Sep-14 13:30N 51°57' E 001°18'1 2.0
2017-Sep-14 13:00N 51°57' E 001°19'4 8.6
2017-Sep-14 12:31N 51°56' E 001°26'611.3
2017-Sep-14 12:00N 51°53' E 001°34'5 9.9
2017-Sep-14 11:30N 51°51' E 001°41'4 7.5
2017-Sep-14 11:00N 51°54' E 001°43'0 0.1
2017-Sep-14 10:29N 51°55' E 001°43'0 0.0
2017-Sep-14 09:59N 51°55' E 001°43'0 0.1
2017-Sep-14 09:29N 51°55' E 001°43'0 0.1
2017-Sep-14 08:59N 51°55' E 001°43'0 0.0
2017-Sep-14 08:29N 51°55' E 001°42'0 0.0
2017-Sep-14 07:59N 51°55' E 001°43'0 0.1
2017-Sep-14 07:29N 51°55' E 001°43'0 0.7
2017-Sep-14 07:01N 51°54' E 001°43'5 9.9
2017-Sep-14 06:30N 51°50' E 001°47'5 9.2
2017-Sep-14 06:00N 51°46' E 001°48'611.8
2017-Sep-14 05:30N 51°40' E 001°49'612.2
2017-Sep-14 05:00N 51°34' E 001°49'611.5
2017-Sep-14 04:30N 51°29' E 001°55'611.4
2017-Sep-14 04:00N 51°25' E 002°02'5 9.5
2017-Sep-14 03:30N 51°21' E 001°60'612.3
2017-Sep-14 03:00N 51°16' E 001°53'612.0
2017-Sep-14 02:30N 51°12' E 001°47'611.3
2017-Sep-14 02:00N 51°07' E 001°42'611.1
2017-Sep-14 01:30N 51°02' E 001°38'510.8
2017-Sep-14 01:00N 50°58' E 001°32'510.8
2017-Sep-14 00:30N 50°53' E 001°28'510.9
2017-Sep-14 00:00N 50°48' E 001°25'510.9
2017-Sep-13 23:30N 50°43' E 001°23'611.1
2017-Sep-13 23:00N 50°39' E 001°16'611.6
2017-Sep-13 22:30N 50°35' E 001°10'611.8
2017-Sep-13 21:59N 50°31' E 001°02'611.8
2017-Sep-13 21:30N 50°28' E 000°54'612.1
2017-Sep-13 21:00N 50°26' E 000°45'612.0
2017-Sep-13 20:30N 50°24' E 000°37'612.0
2017-Sep-13 19:59N 50°23' E 000°27'611.9
2017-Sep-13 19:30N 50°21' E 000°19'611.9
2017-Sep-13 19:00N 50°20' E 000°09'612.1
2017-Sep-13 18:30N 50°19' E 000°00'612.3
2017-Sep-13 18:00N 50°17' W 000°09'612.3
2017-Sep-13 17:30N 50°16' W 000°18'612.4
2017-Sep-13 17:00N 50°14' W 000°28'612.5
2017-Sep-13 16:30N 50°12' W 000°37'1313.3
2017-Sep-13 15:31N 50°09' W 000°57'013.8
2017-Sep-13 15:30N 50°09' W 000°57'714.3
2017-Sep-13 15:00N 50°07' W 001°08'714.8
2017-Sep-13 14:31N 50°05' W 001°19'815.5
2017-Sep-13 14:00N 50°03' W 001°31'815.8
2017-Sep-13 13:30N 50°01' W 001°43'816.2
2017-Sep-13 13:01N 49°60' W 001°55'816.1
2017-Sep-13 12:30N 49°58' W 002°07'1316.3
2017-Sep-13 11:43N 49°55' W 002°27'316.3
2017-Sep-13 11:30N 49°54' W 002°32'816.1
2017-Sep-13 11:00N 49°51' W 002°44'815.7
2017-Sep-13 10:30N 49°49' W 002°55'816.2
2017-Sep-13 10:00N 49°45' W 003°06'816.2
2017-Sep-13 09:30N 49°41' W 003°17'816.1
2017-Sep-13 09:00N 49°38' W 003°28'816.0
2017-Sep-13 08:30N 49°33' W 003°39'815.5
2017-Sep-13 08:00N 49°29' W 003°49'815.6
2017-Sep-13 07:28N 49°25' W 004°00'815.4
2017-Sep-13 06:58N 49°22' W 004°11'1015.2
2017-Sep-13 06:20N 49°17' W 004°24'2814.5
2017-Sep-13 04:23N 49°03' W 005°01'513.7
2017-Sep-13 03:59N 49°00' W 005°08'613.3
2017-Sep-13 03:30N 48°57' W 005°16'612.9
2017-Sep-13 03:00N 48°52' W 005°24'1013.5
2017-Sep-13 02:18N 48°47' W 005°36'  
Track history (hours):
 
Tides and Currents Weather Stations Pressure Air Temp Water Temp Dewpoint Dewpoint Depression Visibility Wind Speed Wind Dir Waves Ship Positions

MSC Maria Saveria

Last reported at 2017-Sep-21 19:25 UTC. Time now 2017-Sep-21 19:52 UTC.
Position N 51°49' E 003°25'.

Length 366 m; draft 12.8 m.

Type: Ship (hazmat cat A). MMSI: 372400000.

Date/timePositionNaut miles runAvg speedWind from/ knotsBaromVisibWave heightAir tempDewpointWater temp
2017-Sep-21 19:25N 51°49' E 003°25'0 0.1
2017-Sep-21 18:58N 51°49' E 003°25'0 0.0
2017-Sep-21 18:28N 51°49' E 003°25'0 0.0
2017-Sep-21 17:58N 51°49' E 003°25'0 0.0
2017-Sep-21 17:28N 51°49' E 003°25'0 0.0
2017-Sep-21 16:52N 51°49' E 003°25'0 0.0
2017-Sep-21 16:16N 51°49' E 003°25'0 0.1
2017-Sep-21 15:58N 51°49' E 003°25'0 0.0
2017-Sep-21 15:22N 51°49' E 003°25'0 0.0
2017-Sep-21 14:10N 51°49' E 003°25'0 0.0
2017-Sep-21 13:58N 51°49' E 003°25'0 0.0
2017-Sep-21 13:28N 51°49' E 003°25'0 0.0
2017-Sep-21 12:55N 51°49' E 003°25'0 0.1
2017-Sep-21 12:25N 51°49' E 003°25'0 0.1
2017-Sep-21 11:46N 51°49' E 003°25'0 0.2
2017-Sep-21 11:28N 51°49' E 003°25'1 1.3
2017-Sep-21 10:46N 51°49' E 003°23'2 7.6
2017-Sep-21 10:26N 51°50' E 003°19'612.9
2017-Sep-21 09:58N 51°45' E 003°14'611.2
2017-Sep-21 09:28N 51°39' E 003°12'715.3
2017-Sep-21 09:01N 51°33' E 003°08'816.2
2017-Sep-21 08:30N 51°27' E 002°59'815.0
2017-Sep-21 08:00N 51°24' E 003°11'918.7
2017-Sep-21 07:30N 51°25' E 003°26'612.6
2017-Sep-21 07:00N 51°26' E 003°36'5 9.9
2017-Sep-21 06:31N 51°24' E 003°43'713.4
2017-Sep-21 06:00N 51°21' E 003°52'714.3
2017-Sep-21 05:30N 51°26' E 004°00'612.6
2017-Sep-21 05:00N 51°22' E 004°08'4 8.9
2017-Sep-21 04:30N 51°21' E 004°15'3 6.6
2017-Sep-21 04:01N 51°18' E 004°16'0 0.2
2017-Sep-21 03:31N 51°18' E 004°16'0 0.0
2017-Sep-21 03:00N 51°18' E 004°16'0 0.0
2017-Sep-21 02:29N 51°18' E 004°16'0 0.0
2017-Sep-21 01:59N 51°18' E 004°16'0 0.0
2017-Sep-21 01:29N 51°18' E 004°16'0 0.0
2017-Sep-21 00:59N 51°18' E 004°16'0 0.0
2017-Sep-21 00:29N 51°18' E 004°16'0 0.0
2017-Sep-20 23:59N 51°18' E 004°16'0 0.0
2017-Sep-20 23:29N 51°18' E 004°16'0 0.0
2017-Sep-20 22:59N 51°18' E 004°16'0 0.0
2017-Sep-20 22:29N 51°18' E 004°16'0 0.0
2017-Sep-20 21:59N 51°18' E 004°16'0 0.0
2017-Sep-20 21:29N 51°18' E 004°16'0 0.0
2017-Sep-20 20:59N 51°18' E 004°16'0 0.0
2017-Sep-20 20:29N 51°18' E 004°16'0 0.0
2017-Sep-20 19:59N 51°18' E 004°16'0 0.0
2017-Sep-20 19:29N 51°18' E 004°16'0 0.0
2017-Sep-20 18:59N 51°18' E 004°16'0 0.0
2017-Sep-20 18:29N 51°18' E 004°16'0 0.0
2017-Sep-20 17:59N 51°18' E 004°16'0 0.0
2017-Sep-20 17:29N 51°18' E 004°16'0 0.0
2017-Sep-20 16:59N 51°18' E 004°16'0 0.0
2017-Sep-20 16:29N 51°18' E 004°16'0 0.0
2017-Sep-20 15:59N 51°18' E 004°16'0 0.0
2017-Sep-20 15:29N 51°18' E 004°16'0 0.0
2017-Sep-20 14:59N 51°18' E 004°16'0 0.0
2017-Sep-20 13:59N 51°18' E 004°16'0 0.0
2017-Sep-20 13:29N 51°18' E 004°16'0 0.0
2017-Sep-20 12:59N 51°18' E 004°16'0 0.0
2017-Sep-20 12:29N 51°18' E 004°16'0 0.0
2017-Sep-20 11:59N 51°18' E 004°16'0 0.0
2017-Sep-20 11:29N 51°18' E 004°16'0 0.0
2017-Sep-20 10:59N 51°18' E 004°16'0 0.0
2017-Sep-20 10:29N 51°18' E 004°16'0 0.0
2017-Sep-20 09:59N 51°18' E 004°16'0 0.0
2017-Sep-20 09:29N 51°18' E 004°16'0 0.0
2017-Sep-20 08:59N 51°18' E 004°16'0 0.0
2017-Sep-20 08:29N 51°18' E 004°16'0 0.0
2017-Sep-20 07:59N 51°18' E 004°16'0 0.0
2017-Sep-20 07:29N 51°18' E 004°16'0 0.0
2017-Sep-20 06:59N 51°18' E 004°16'0 0.0
2017-Sep-20 06:29N 51°18' E 004°16'0 0.0
2017-Sep-20 05:59N 51°18' E 004°16'0 0.0
2017-Sep-20 05:29N 51°18' E 004°16'0 0.0
2017-Sep-20 04:59N 51°18' E 004°16'0 0.0
2017-Sep-20 04:29N 51°18' E 004°16'0 0.0
2017-Sep-20 03:59N 51°18' E 004°16'0 0.0
2017-Sep-20 03:29N 51°18' E 004°16'0 0.0
2017-Sep-20 02:59N 51°18' E 004°16'0 0.0
2017-Sep-20 02:29N 51°18' E 004°16'0 0.0
2017-Sep-20 01:59N 51°18' E 004°16'0 0.0
2017-Sep-20 01:29N 51°18' E 004°16'0 0.0
2017-Sep-20 00:59N 51°18' E 004°16'0 0.0
2017-Sep-20 00:29N 51°18' E 004°16'0 0.0
2017-Sep-19 23:59N 51°18' E 004°16'0 0.0
2017-Sep-19 23:29N 51°18' E 004°16'0 0.0
2017-Sep-19 22:59N 51°18' E 004°16'0 0.0
2017-Sep-19 22:29N 51°18' E 004°16'0 0.0
2017-Sep-19 21:59N 51°18' E 004°16'0 0.0
2017-Sep-19 21:29N 51°18' E 004°16'0 0.0
2017-Sep-19 20:59N 51°18' E 004°16'0 0.0
2017-Sep-19 20:29N 51°18' E 004°16'0 0.0
2017-Sep-19 19:56N 51°18' E 004°16'0 0.0
2017-Sep-19 19:29N 51°18' E 004°16'0 0.0
2017-Sep-19 18:59N 51°18' E 004°16'0 0.0
2017-Sep-19 18:28N 51°18' E 004°16'0 0.0
2017-Sep-19 17:59N 51°18' E 004°16'0 0.0
2017-Sep-19 17:28N 51°18' E 004°16'0 0.0
2017-Sep-19 16:56N 51°18' E 004°16'0 0.0
2017-Sep-19 16:29N 51°18' E 004°16'0 0.0
2017-Sep-19 15:58N 51°18' E 004°16'0 0.0
2017-Sep-19 15:29N 51°18' E 004°16'0 0.0
2017-Sep-19 15:00N 51°18' E 004°16'0 0.0
2017-Sep-19 14:30N 51°18' E 004°16'0 0.0
2017-Sep-19 14:00N 51°18' E 004°16'0 0.0
2017-Sep-19 13:31N 51°18' E 004°16'0 0.0
2017-Sep-19 13:00N 51°18' E 004°16'0 0.0
2017-Sep-19 12:30N 51°18' E 004°16'0 0.0
2017-Sep-19 12:00N 51°18' E 004°16'0 0.0
2017-Sep-19 11:31N 51°18' E 004°16'0 0.0
2017-Sep-19 11:00N 51°18' E 004°16'1 2.0
2017-Sep-19 10:31N 51°19' E 004°16'4 8.9
2017-Sep-19 10:00N 51°23' E 004°13'611.2
2017-Sep-19 09:30N 51°22' E 004°04'5 9.6
2017-Sep-19 09:01N 51°26' E 003°58'713.4
2017-Sep-19 08:31N 51°21' E 003°51'713.9
2017-Sep-19 08:01N 51°25' E 003°42'510.2
2017-Sep-19 07:30N 51°25' E 003°34'815.6
2017-Sep-19 07:00N 51°24' E 003°22'816.0
2017-Sep-19 06:30N 51°24' E 003°09'713.1
2017-Sep-19 06:00N 51°27' E 002°59'918.9
2017-Sep-19 05:30N 51°34' E 003°09'917.8
2017-Sep-19 05:00N 51°43' E 003°12'5 9.4
2017-Sep-19 04:30N 51°47' E 003°16'4 7.4
2017-Sep-19 04:00N 51°51' E 003°15'510.5
2017-Sep-19 03:29N 51°56' E 003°18'510.8
2017-Sep-19 03:00N 52°01' E 003°20'612.7
2017-Sep-19 02:30N 52°07' E 003°21'815.6
2017-Sep-19 02:00N 52°15' E 003°23'917.6
2017-Sep-19 01:29N 52°24' E 003°26'917.8
2017-Sep-19 01:00N 52°32' E 003°29'4518.7
2017-Sep-18 22:35N 53°07' E 004°17'320.2
2017-Sep-18 22:25N 53°09' E 004°21'920.0
2017-Sep-18 21:57N 53°17' E 004°29'919.9
2017-Sep-18 21:30N 53°26' E 004°34'1019.3
2017-Sep-18 21:01N 53°32' E 004°47'1020.5
2017-Sep-18 20:31N 53°35' E 005°03'1020.2
2017-Sep-18 20:01N 53°38' E 005°19'1019.5
2017-Sep-18 19:29N 53°41' E 005°36'7519.0
2017-Sep-18 15:34N 54°01' E 007°37'120.1
2017-Sep-18 15:30N 54°01' E 007°39'1020.0
2017-Sep-18 15:01N 54°02' E 007°56'1019.3
2017-Sep-18 14:30N 54°00' E 008°13'917.0
2017-Sep-18 14:00N 53°59' E 008°27'817.0
2017-Sep-18 13:30N 53°56' E 008°40'713.8
2017-Sep-18 13:01N 53°50' E 008°48'815.3
2017-Sep-18 12:31N 53°51' E 009°01'611.9
2017-Sep-18 12:00N 53°53' E 009°10'612.1
2017-Sep-18 11:31N 53°51' E 009°20'612.5
2017-Sep-18 11:00N 53°45' E 009°25'510.9
2017-Sep-18 10:31N 53°41' E 009°30'4 8.3
2017-Sep-18 10:01N 53°37' E 009°33'5 9.2
2017-Sep-18 09:30N 53°34' E 009°40'4 7.1
2017-Sep-18 09:00N 53°34' E 009°45'4 7.1
2017-Sep-18 08:30N 53°33' E 009°51'1 2.6
2017-Sep-18 08:00N 53°33' E 009°53'1 2.6
2017-Sep-18 07:30N 53°32' E 009°55'0 0.0
2017-Sep-18 07:00N 53°32' E 009°55'0 0.0
2017-Sep-18 06:30N 53°32' E 009°55'0 0.0
2017-Sep-18 05:59N 53°32' E 009°55'0 0.0
2017-Sep-18 05:29N 53°32' E 009°55'0 0.0
2017-Sep-18 04:56N 53°32' E 009°55'0 0.0
2017-Sep-18 04:29N 53°32' E 009°55'0 0.0
2017-Sep-18 03:59N 53°32' E 009°55'0 0.0
2017-Sep-18 03:29N 53°32' E 009°55'0 0.0
2017-Sep-18 02:59N 53°32' E 009°55'0 0.0
2017-Sep-18 02:29N 53°32' E 009°55'0 0.0
2017-Sep-18 01:59N 53°32' E 009°55'0 0.0
2017-Sep-18 01:29N 53°32' E 009°55'0 0.0
2017-Sep-18 00:59N 53°32' E 009°55'0 0.0
2017-Sep-18 00:29N 53°32' E 009°55'0 0.0
2017-Sep-17 23:59N 53°32' E 009°55'0 0.0
2017-Sep-17 23:29N 53°32' E 009°55'0 0.0
2017-Sep-17 22:59N 53°32' E 009°55'0 0.0
2017-Sep-17 22:29N 53°32' E 009°55'0 0.0
2017-Sep-17 21:59N 53°32' E 009°55'0 0.0
2017-Sep-17 21:29N 53°32' E 009°55'0 0.0
2017-Sep-17 20:59N 53°32' E 009°55'0 0.0
2017-Sep-17 20:29N 53°32' E 009°55'0 0.0
2017-Sep-17 19:59N 53°32' E 009°55'0 0.0
2017-Sep-17 19:29N 53°32' E 009°55'0 0.0
2017-Sep-17 18:59N 53°32' E 009°55'0 0.0
2017-Sep-17 18:29N 53°32' E 009°55'0 0.0
2017-Sep-17 17:59N 53°32' E 009°55'0 0.0
2017-Sep-17 17:29N 53°32' E 009°55'0 0.0
2017-Sep-17 16:59N 53°32' E 009°55'0 0.0
2017-Sep-17 16:29N 53°32' E 009°55'0 0.0
2017-Sep-17 15:59N 53°32' E 009°55'0 0.0
2017-Sep-17 15:29N 53°32' E 009°55'0 0.0
2017-Sep-17 14:59N 53°32' E 009°55'0 0.0
2017-Sep-17 14:29N 53°32' E 009°55'0 0.0
2017-Sep-17 13:59N 53°32' E 009°55'0 0.0
2017-Sep-17 13:29N 53°32' E 009°55'0 0.0
2017-Sep-17 12:59N 53°32' E 009°55'0 0.0
2017-Sep-17 12:29N 53°32' E 009°55'0 0.0
2017-Sep-17 11:59N 53°32' E 009°55'0 0.0
2017-Sep-17 11:29N 53°32' E 009°55'0 0.0
2017-Sep-17 10:59N 53°32' E 009°55'0 0.0
2017-Sep-17 10:29N 53°32' E 009°55'0 0.0
2017-Sep-17 09:59N 53°32' E 009°55'0 0.0
2017-Sep-17 09:29N 53°32' E 009°55'0 0.0
2017-Sep-17 08:59N 53°32' E 009°55'0 0.0
2017-Sep-17 08:29N 53°32' E 009°55'0 0.0
2017-Sep-17 07:59N 53°32' E 009°55'0 0.0
2017-Sep-17 07:26N 53°32' E 009°55'0 0.0
2017-Sep-17 06:59N 53°32' E 009°55'0 0.0
2017-Sep-17 06:29N 53°32' E 009°55'0 0.0
2017-Sep-17 05:59N 53°32' E 009°55'0 0.0
2017-Sep-17 05:29N 53°32' E 009°55'0 0.0
2017-Sep-17 04:59N 53°32' E 009°55'0 0.0
2017-Sep-17 04:29N 53°32' E 009°55'0 0.0
2017-Sep-17 03:59N 53°32' E 009°55'0 0.0
2017-Sep-17 03:29N 53°32' E 009°55'0 0.0
2017-Sep-17 02:59N 53°32' E 009°55'0 0.0
2017-Sep-17 02:29N 53°32' E 009°55'0 0.0
2017-Sep-17 01:59N 53°32' E 009°55'0 0.0
2017-Sep-17 01:29N 53°32' E 009°55'0 0.0
2017-Sep-17 00:59N 53°32' E 009°55'0 0.0
2017-Sep-17 00:29N 53°32' E 009°55'0 0.0
2017-Sep-16 23:59N 53°32' E 009°55'0 0.0
2017-Sep-16 23:29N 53°32' E 009°55'0 0.0
2017-Sep-16 22:59N 53°32' E 009°55'0 0.0
2017-Sep-16 22:29N 53°32' E 009°55'0 0.0
2017-Sep-16 21:59N 53°32' E 009°55'0 0.0
2017-Sep-16 21:29N 53°32' E 009°55'0 0.0
2017-Sep-16 20:59N 53°32' E 009°55'0 0.0
2017-Sep-16 20:29N 53°32' E 009°55'0 0.0
2017-Sep-16 19:59N 53°32' E 009°55'0 0.0
2017-Sep-16 19:29N 53°32' E 009°55'0 0.0
2017-Sep-16 18:59N 53°32' E 009°55'0 0.0
2017-Sep-16 18:29N 53°32' E 009°55'0 0.0
2017-Sep-16 17:59N 53°32' E 009°55'0 0.0
2017-Sep-16 17:29N 53°32' E 009°55'0 0.0
2017-Sep-16 16:59N 53°32' E 009°55'0 0.0
2017-Sep-16 16:29N 53°32' E 009°55'0 0.0
2017-Sep-16 15:59N 53°32' E 009°55'0 0.0
2017-Sep-16 15:31N 53°32' E 009°55'0 0.0
2017-Sep-16 15:01N 53°32' E 009°55'0 0.0
2017-Sep-16 14:30N 53°32' E 009°55'0 0.0
2017-Sep-16 14:00N 53°32' E 009°55'0 0.0
2017-Sep-16 13:30N 53°32' E 009°55'0 0.0
2017-Sep-16 13:01N 53°32' E 009°55'0 0.0
2017-Sep-16 12:30N 53°32' E 009°55'1 1.0
2017-Sep-16 12:01N 53°32' E 009°54'2 3.3
2017-Sep-16 11:30N 53°33' E 009°52'4 8.0
2017-Sep-16 11:00N 53°34' E 009°45'510.0
2017-Sep-16 10:30N 53°35' E 009°37'612.0
2017-Sep-16 10:00N 53°40' E 009°31'713.6
2017-Sep-16 09:31N 53°45' E 009°24'815.3
2017-Sep-16 09:00N 53°52' E 009°18'612.0
2017-Sep-16 08:31N 53°53' E 009°08'713.4
2017-Sep-16 08:00N 53°51' E 008°57'815.7
2017-Sep-16 07:30N 53°52' E 008°44'713.2
2017-Sep-16 07:00N 53°57' E 008°37'917.5
2017-Sep-16 06:29N 53°59' E 008°22'816.9
2017-Sep-16 06:00N 53°59' E 008°08'4 5.7
2017-Sep-16 05:14N 53°59' E 008°00'9315.8
2017-Sep-15 23:22N 53°35' E 005°28'718.1
2017-Sep-15 22:59N 53°32' E 005°17'817.7
2017-Sep-15 22:30N 53°30' E 005°04'917.6
2017-Sep-15 22:00N 53°27' E 004°50'917.2
2017-Sep-15 21:30N 53°21' E 004°40'917.9
2017-Sep-15 21:00N 53°13' E 004°32'918.0
2017-Sep-15 20:30N 53°05' E 004°25'917.9
2017-Sep-15 20:00N 52°57' E 004°19'917.5
2017-Sep-15 19:31N 52°49' E 004°13'917.8
2017-Sep-15 19:00N 52°42' E 004°04'917.7
2017-Sep-15 18:30N 52°36' E 003°54'918.3
2017-Sep-15 18:00N 52°29' E 003°43'1018.2
2017-Sep-15 17:29N 52°23' E 003°31'5916.5
2017-Sep-15 13:54N 51°52' E 002°08'717.7
2017-Sep-15 13:30N 51°50' E 001°58'817.0
2017-Sep-15 13:00N 51°49' E 001°44'714.1
2017-Sep-15 12:30N 51°52' E 001°34'510.2
2017-Sep-15 12:00N 51°56' E 001°29'612.6
2017-Sep-15 11:30N 51°56' E 001°19'2 4.7
2017-Sep-15 11:00N 51°58' E 001°17'0 0.0
2017-Sep-15 10:30N 51°58' E 001°17'0 0.0
2017-Sep-15 10:00N 51°58' E 001°17'0 0.0
2017-Sep-15 09:30N 51°58' E 001°17'0 0.0
2017-Sep-15 09:00N 51°58' E 001°17'0 0.0
2017-Sep-15 08:30N 51°58' E 001°17'0 0.0
2017-Sep-15 08:00N 51°58' E 001°17'0 0.0
2017-Sep-15 07:30N 51°58' E 001°17'0 0.0
2017-Sep-15 07:00N 51°58' E 001°17'0 0.0
2017-Sep-15 06:30N 51°58' E 001°17'0 0.0
2017-Sep-15 06:00N 51°58' E 001°17'0 0.0
2017-Sep-15 05:30N 51°58' E 001°17'0 0.0
2017-Sep-15 05:00N 51°58' E 001°17'0 0.0
2017-Sep-15 04:30N 51°58' E 001°17'0 0.0
2017-Sep-15 04:00N 51°58' E 001°17'0 0.0
2017-Sep-15 03:30N 51°58' E 001°17'0 0.0
2017-Sep-15 03:00N 51°58' E 001°17'0 0.0
2017-Sep-15 02:30N 51°58' E 001°17'0 0.0
2017-Sep-15 02:00N 51°58' E 001°17'0 0.0
2017-Sep-15 01:30N 51°58' E 001°17'0 0.0
2017-Sep-15 01:00N 51°58' E 001°17'0 0.0
2017-Sep-15 00:30N 51°58' E 001°17'0 0.0
2017-Sep-15 00:00N 51°58' E 001°17'0 0.0
2017-Sep-14 23:30N 51°58' E 001°17'0 0.0
2017-Sep-14 23:00N 51°58' E 001°17'0 0.0
2017-Sep-14 22:30N 51°58' E 001°17'0 0.0
2017-Sep-14 22:00N 51°58' E 001°17'0 0.0
2017-Sep-14 21:30N 51°58' E 001°17'0 0.0
2017-Sep-14 21:00N 51°58' E 001°17'0 0.0
2017-Sep-14 20:30N 51°58' E 001°17'0 0.0
2017-Sep-14 20:00N 51°58' E 001°17'0 0.0
2017-Sep-14 19:30N 51°58' E 001°17'0 0.0
2017-Sep-14 19:00N 51°58' E 001°17'0 0.0
2017-Sep-14 18:30N 51°58' E 001°17'0 0.0
2017-Sep-14 18:00N 51°58' E 001°17'0 0.0
2017-Sep-14 17:30N 51°58' E 001°17'0 0.0
2017-Sep-14 17:00N 51°58' E 001°17'0 0.0
2017-Sep-14 16:30N 51°58' E 001°17'0 0.0
2017-Sep-14 16:00N 51°58' E 001°17'0 0.0
2017-Sep-14 15:30N 51°58' E 001°17'0 0.0
2017-Sep-14 15:00N 51°58' E 001°17'0 0.0
2017-Sep-14 14:30N 51°58' E 001°17'0 0.0
2017-Sep-14 14:01N 51°58' E 001°17'0 0.6
2017-Sep-14 13:30N 51°57' E 001°18'1 2.0
2017-Sep-14 13:00N 51°57' E 001°19'4 8.6
2017-Sep-14 12:31N 51°56' E 001°26'611.3
2017-Sep-14 12:00N 51°53' E 001°34'5 9.9
2017-Sep-14 11:30N 51°51' E 001°41'4 7.5
2017-Sep-14 11:00N 51°54' E 001°43'0 0.1
2017-Sep-14 10:29N 51°55' E 001°43'0 0.0
2017-Sep-14 09:59N 51°55' E 001°43'0 0.1
2017-Sep-14 09:29N 51°55' E 001°43'0 0.1
2017-Sep-14 08:59N 51°55' E 001°43'0 0.0
2017-Sep-14 08:29N 51°55' E 001°42'0 0.0
2017-Sep-14 07:59N 51°55' E 001°43'0 0.1
2017-Sep-14 07:29N 51°55' E 001°43'0 0.7
2017-Sep-14 07:01N 51°54' E 001°43'5 9.9
2017-Sep-14 06:30N 51°50' E 001°47'5 9.2
2017-Sep-14 06:00N 51°46' E 001°48'611.8
2017-Sep-14 05:30N 51°40' E 001°49'612.2
2017-Sep-14 05:00N 51°34' E 001°49'611.5
2017-Sep-14 04:30N 51°29' E 001°55'611.4
2017-Sep-14 04:00N 51°25' E 002°02'5 9.5
2017-Sep-14 03:30N 51°21' E 001°60'612.3
2017-Sep-14 03:00N 51°16' E 001°53'612.0
2017-Sep-14 02:30N 51°12' E 001°47'611.3
2017-Sep-14 02:00N 51°07' E 001°42'611.1
2017-Sep-14 01:30N 51°02' E 001°38'510.8
2017-Sep-14 01:00N 50°58' E 001°32'510.8
2017-Sep-14 00:30N 50°53' E 001°28'510.9
2017-Sep-14 00:00N 50°48' E 001°25'510.9
2017-Sep-13 23:30N 50°43' E 001°23'611.1
2017-Sep-13 23:00N 50°39' E 001°16'611.6
2017-Sep-13 22:30N 50°35' E 001°10'611.8
2017-Sep-13 21:59N 50°31' E 001°02'611.8
2017-Sep-13 21:30N 50°28' E 000°54'612.1
2017-Sep-13 21:00N 50°26' E 000°45'612.0
2017-Sep-13 20:30N 50°24' E 000°37'612.0
2017-Sep-13 19:59N 50°23' E 000°27'611.9
2017-Sep-13 19:30N 50°21' E 000°19'611.9
2017-Sep-13 19:00N 50°20' E 000°09'612.1
2017-Sep-13 18:30N 50°19' E 000°00'612.3
2017-Sep-13 18:00N 50°17' W 000°09'612.3
2017-Sep-13 17:30N 50°16' W 000°18'612.4
2017-Sep-13 17:00N 50°14' W 000°28'612.5
2017-Sep-13 16:30N 50°12' W 000°37'1313.3
2017-Sep-13 15:31N 50°09' W 000°57'013.8
2017-Sep-13 15:30N 50°09' W 000°57'714.3
2017-Sep-13 15:00N 50°07' W 001°08'714.8
2017-Sep-13 14:31N 50°05' W 001°19'815.5
2017-Sep-13 14:00N 50°03' W 001°31'815.8
2017-Sep-13 13:30N 50°01' W 001°43'816.2
2017-Sep-13 13:01N 49°60' W 001°55'816.1
2017-Sep-13 12:30N 49°58' W 002°07'1316.3
2017-Sep-13 11:43N 49°55' W 002°27'316.3
2017-Sep-13 11:30N 49°54' W 002°32'816.1
2017-Sep-13 11:00N 49°51' W 002°44'815.7
2017-Sep-13 10:30N 49°49' W 002°55'816.2
2017-Sep-13 10:00N 49°45' W 003°06'816.2
2017-Sep-13 09:30N 49°41' W 003°17'816.1
2017-Sep-13 09:00N 49°38' W 003°28'816.0
2017-Sep-13 08:30N 49°33' W 003°39'815.5
2017-Sep-13 08:00N 49°29' W 003°49'815.6
2017-Sep-13 07:28N 49°25' W 004°00'815.4
2017-Sep-13 06:58N 49°22' W 004°11'1015.2
2017-Sep-13 06:20N 49°17' W 004°24'2814.5
2017-Sep-13 04:23N 49°03' W 005°01'513.7
2017-Sep-13 03:59N 49°00' W 005°08'613.3
2017-Sep-13 03:30N 48°57' W 005°16'612.9
2017-Sep-13 03:00N 48°52' W 005°24'1013.5
2017-Sep-13 02:18N 48°47' W 005°36'  

Dump ship's entire track history